createdAt,value
2023-02-23T00:01:55.704Z,17.63
2023-02-23T00:04:23.539Z,16.75
2023-02-23T00:06:52.168Z,17.42
2023-02-23T00:09:25.000Z,18.75
2023-02-23T00:11:56.286Z,19.85
2023-02-23T00:14:31.027Z,16.42
2023-02-23T00:16:59.775Z,17.95
2023-02-23T00:19:26.554Z,19.08
2023-02-23T00:21:54.050Z,17.40
2023-02-23T00:24:20.844Z,18.13
2023-02-23T00:26:48.426Z,18.00
2023-02-23T00:29:25.632Z,16.73
2023-02-23T00:31:52.772Z,16.27
2023-02-23T00:34:21.016Z,17.52
2023-02-23T00:36:51.301Z,15.90
2023-02-23T00:39:20.939Z,16.48
2023-02-23T00:41:48.938Z,18.05
2023-02-23T00:44:16.013Z,16.88
2023-02-23T00:46:43.612Z,17.00
2023-02-23T00:49:12.622Z,18.90
2023-02-23T00:51:39.634Z,16.40
2023-02-23T00:54:06.884Z,16.50
2023-02-23T00:56:33.883Z,17.35
2023-02-23T00:59:00.509Z,18.67
2023-02-23T01:01:27.786Z,17.27
2023-02-23T01:03:54.448Z,17.88
2023-02-23T01:06:21.908Z,19.48
2023-02-23T01:08:50.951Z,17.15
2023-02-23T01:11:22.516Z,17.48
2023-02-23T01:13:51.721Z,18.13
2023-02-23T01:16:21.969Z,17.50
2023-02-23T01:18:48.971Z,18.50
2023-02-23T01:21:15.667Z,16.67
2023-02-23T01:23:42.326Z,17.38
2023-02-23T01:26:17.002Z,16.55
2023-02-23T01:28:43.629Z,15.55
2023-02-23T01:31:10.387Z,17.85
2023-02-23T01:33:37.156Z,18.67
2023-02-23T01:36:03.926Z,22.67
2023-02-23T01:38:30.483Z,20.00
2023-02-23T01:40:57.054Z,26.00
2023-02-23T01:43:26.105Z,26.48
2023-02-23T01:45:58.052Z,23.52
2023-02-23T01:48:35.514Z,20.40
2023-02-23T01:51:04.244Z,22.13
2023-02-23T01:53:34.605Z,22.05
2023-02-23T01:56:11.149Z,19.80
2023-02-23T01:58:40.754Z,20.65
2023-02-23T02:01:07.568Z,21.58
2023-02-23T02:03:41.746Z,20.38
2023-02-23T02:06:14.091Z,18.35
2023-02-23T02:08:46.329Z,19.27
2023-02-23T02:11:33.578Z,18.67
2023-02-23T02:14:08.943Z,18.15
2023-02-23T02:17:02.407Z,18.40
2023-02-23T02:19:46.041Z,21.20
2023-02-23T02:22:15.390Z,25.98
2023-02-23T02:24:44.831Z,26.60
2023-02-23T02:27:30.297Z,23.02
2023-02-23T02:30:22.878Z,23.42
2023-02-23T02:33:22.338Z,25.20
2023-02-23T02:36:23.239Z,27.70
2023-02-23T02:39:23.718Z,19.52
2023-02-23T02:42:07.974Z,23.02
2023-02-23T02:44:57.991Z,18.92
2023-02-23T02:47:50.343Z,21.20
2023-02-23T02:50:36.892Z,16.92
2023-02-23T02:53:08.438Z,20.05
2023-02-23T02:55:39.523Z,21.45
2023-02-23T02:58:08.048Z,23.10
2023-02-23T03:01:01.043Z,25.40
2023-02-23T03:03:55.570Z,27.98
2023-02-23T03:06:57.065Z,27.92
2023-02-23T03:10:26.797Z,27.50
2023-02-23T03:13:26.179Z,20.75
2023-02-23T03:16:34.266Z,28.30
2023-02-23T03:19:33.948Z,25.05
2023-02-23T03:22:28.546Z,27.48
2023-02-23T03:25:22.536Z,28.45
2023-02-23T03:28:37.710Z,27.58
2023-02-23T03:31:33.367Z,25.45
2023-02-23T03:34:26.663Z,22.13
2023-02-23T03:37:24.151Z,24.40
2023-02-23T03:40:36.969Z,27.38
2023-02-23T03:43:27.894Z,23.45
2023-02-23T03:46:15.923Z,22.70
2023-02-23T03:49:04.245Z,22.77
2023-02-23T03:51:53.267Z,20.77
2023-02-23T03:54:53.922Z,27.00
2023-02-23T03:57:41.257Z,27.15
2023-02-23T04:00:35.078Z,26.60
2023-02-23T04:03:24.720Z,28.35
2023-02-23T04:06:13.254Z,27.92
2023-02-23T04:08:59.087Z,22.20
2023-02-23T04:12:07.218Z,19.80
2023-02-23T04:15:04.424Z,28.67
2023-02-23T04:17:31.145Z,27.35
2023-02-23T04:19:57.726Z,24.42
2023-02-23T04:22:25.099Z,26.58
2023-02-23T04:24:51.813Z,27.33
2023-02-23T04:27:19.140Z,22.27
2023-02-23T04:29:45.872Z,24.08
2023-02-23T04:32:18.342Z,26.10
2023-02-23T04:34:45.153Z,21.42
2023-02-23T04:37:12.941Z,28.77
2023-02-23T04:39:39.762Z,20.35
2023-02-23T04:42:06.401Z,21.70
2023-02-23T04:44:32.967Z,19.73
2023-02-23T04:46:59.575Z,24.05
2023-02-23T04:49:26.146Z,21.20
2023-02-23T04:51:52.744Z,21.92
2023-02-23T04:54:31.871Z,28.42
2023-02-23T04:56:58.455Z,21.83
2023-02-23T04:59:25.069Z,23.27
2023-02-23T05:01:51.644Z,27.13
2023-02-23T05:04:18.373Z,23.00
2023-02-23T05:06:44.976Z,26.60
2023-02-23T05:09:11.552Z,27.58
2023-02-23T05:11:38.172Z,23.38
2023-02-23T05:14:04.869Z,26.55
2023-02-23T05:16:32.007Z,27.85
2023-02-23T05:18:58.967Z,28.27
2023-02-23T05:21:25.641Z,29.90
2023-02-23T05:23:52.230Z,27.20
2023-02-23T05:26:18.969Z,29.02
2023-02-23T05:28:45.557Z,26.33
2023-02-23T05:31:12.396Z,25.33
2023-02-23T05:33:48.043Z,28.63
2023-02-23T05:36:17.412Z,26.95
2023-02-23T05:38:45.812Z,26.73
2023-02-23T05:41:18.477Z,27.25
2023-02-23T05:43:45.369Z,25.10
2023-02-23T05:46:16.716Z,24.90
2023-02-23T05:48:43.576Z,26.20
2023-02-23T05:51:16.141Z,25.75
2023-02-23T05:53:43.567Z,25.10
2023-02-23T05:56:14.185Z,24.10
2023-02-23T05:58:40.787Z,23.98
2023-02-23T06:01:07.354Z,24.50
2023-02-23T06:03:34.419Z,24.65
2023-02-23T06:06:01.180Z,22.52
2023-02-23T06:08:27.875Z,22.50
2023-02-23T06:10:54.557Z,22.95
2023-02-23T06:13:21.659Z,22.60
2023-02-23T06:15:49.444Z,23.77
2023-02-23T06:18:17.519Z,23.65
2023-02-23T06:20:45.725Z,23.58
2023-02-23T06:23:12.770Z,25.05
2023-02-23T06:25:40.397Z,23.80
2023-02-23T06:28:08.463Z,22.38
2023-02-23T06:30:35.521Z,25.20
2023-02-23T06:33:02.413Z,24.92
2023-02-23T06:35:29.040Z,25.83
2023-02-23T06:37:55.690Z,28.10
2023-02-23T06:40:22.431Z,31.15
2023-02-23T06:42:49.049Z,35.92
2023-02-23T06:45:15.671Z,32.67
2023-02-23T06:47:42.294Z,29.73
2023-02-23T06:50:09.902Z,26.60
2023-02-23T06:52:39.523Z,25.02
2023-02-23T06:55:07.149Z,26.17
2023-02-23T06:57:34.123Z,28.17
2023-02-23T07:00:01.714Z,28.55
2023-02-23T07:02:28.430Z,30.08
2023-02-23T07:04:55.022Z,32.17
2023-02-23T07:07:22.122Z,35.10
2023-02-23T07:09:48.700Z,34.30
2023-02-23T07:12:15.294Z,60.20
2023-02-23T07:14:41.882Z,36.58
2023-02-23T07:17:10.015Z,41.33
2023-02-23T07:19:38.201Z,29.52
2023-02-23T07:22:05.824Z,27.33
2023-02-23T07:24:32.470Z,27.08
2023-02-23T07:26:59.137Z,28.15
2023-02-23T07:29:27.631Z,29.35
2023-02-23T07:31:54.620Z,30.40
2023-02-23T07:34:21.650Z,26.42
2023-02-23T07:36:48.379Z,21.85
2023-02-23T07:39:15.057Z,27.08
2023-02-23T07:41:41.791Z,27.33
2023-02-23T07:44:08.460Z,28.08
2023-02-23T07:46:35.089Z,26.45
2023-02-23T07:49:02.996Z,20.77
2023-02-23T07:51:29.643Z,21.48
2023-02-23T07:53:56.434Z,26.83
2023-02-23T07:56:23.237Z,25.10
2023-02-23T07:58:49.812Z,24.25
2023-02-23T08:01:16.643Z,26.65
2023-02-23T08:03:49.356Z,25.15
2023-02-23T08:06:17.725Z,27.52
2023-02-23T08:08:44.685Z,6.72
2023-02-23T08:11:12.061Z,27.83
2023-02-23T08:13:39.079Z,20.40
2023-02-23T08:16:05.905Z,27.50
2023-02-23T08:18:32.650Z,23.95
2023-02-23T08:21:03.678Z,27.98
2023-02-23T08:23:32.018Z,18.83
2023-02-23T08:25:59.667Z,29.67
2023-02-23T08:28:27.421Z,16.80
2023-02-23T08:30:54.699Z,25.48
2023-02-23T08:33:21.660Z,24.02
2023-02-23T08:35:48.589Z,17.45
2023-02-23T08:38:16.377Z,30.80
2023-02-23T08:40:43.236Z,29.05
2023-02-23T08:43:10.001Z,24.00
2023-02-23T08:45:38.598Z,29.10
2023-02-23T08:48:06.539Z,25.77
2023-02-23T08:50:33.352Z,29.90
2023-02-23T08:53:00.024Z,27.55
2023-02-23T08:55:26.759Z,23.50
2023-02-23T08:57:53.516Z,29.23
2023-02-23T09:00:20.658Z,29.08
2023-02-23T09:02:48.139Z,24.30
2023-02-23T09:05:15.358Z,24.65
2023-02-23T09:07:47.217Z,27.58
2023-02-23T09:10:19.764Z,26.98
2023-02-23T09:12:46.370Z,28.70
2023-02-23T09:15:13.016Z,24.25
2023-02-23T09:17:41.300Z,28.35
2023-02-23T09:20:09.315Z,29.30
2023-02-23T09:22:36.992Z,28.38
2023-02-23T09:25:04.905Z,9.00
2023-02-23T09:27:31.602Z,28.10
2023-02-23T09:29:58.262Z,27.17
2023-02-23T09:32:24.900Z,25.58
2023-02-23T09:34:52.457Z,24.05
2023-02-23T09:37:19.100Z,24.30
2023-02-23T09:39:45.798Z,25.02
2023-02-23T09:42:23.092Z,23.33
2023-02-23T09:45:14.429Z,16.45
2023-02-23T09:47:59.432Z,33.40
2023-02-23T09:50:30.267Z,40.10
2023-02-23T09:53:03.788Z,28.15
2023-02-23T09:55:31.651Z,24.58
2023-02-23T09:58:08.242Z,23.10
2023-02-23T10:00:44.741Z,23.98
2023-02-23T10:03:26.330Z,21.38
2023-02-23T10:05:59.469Z,23.45
2023-02-23T10:08:41.114Z,22.92
2023-02-23T10:11:36.909Z,22.70
2023-02-23T10:14:16.334Z,25.10
2023-02-23T10:16:58.721Z,23.67
2023-02-23T10:19:37.095Z,21.33
2023-02-23T10:22:07.252Z,26.15
2023-02-23T10:24:42.283Z,22.40
2023-02-23T10:27:20.830Z,23.15
2023-02-23T10:29:51.418Z,23.63
2023-02-23T10:32:40.615Z,24.17
2023-02-23T10:35:29.260Z,25.25
2023-02-23T10:37:57.102Z,24.42
2023-02-23T10:40:28.041Z,23.55
2023-02-23T10:42:57.380Z,19.73
2023-02-23T10:45:26.674Z,23.52
2023-02-23T10:48:03.803Z,22.30
2023-02-23T10:50:31.118Z,22.10
2023-02-23T10:53:16.537Z,20.67
2023-02-23T10:55:46.123Z,22.13
2023-02-23T10:58:20.207Z,20.02
2023-02-23T11:01:01.204Z,19.15
2023-02-23T11:03:33.825Z,20.27
2023-02-23T11:06:01.036Z,16.05
2023-02-23T11:08:36.315Z,18.20
2023-02-23T11:11:14.871Z,15.65
2023-02-23T11:13:47.497Z,16.30
2023-02-23T11:16:20.053Z,16.02
2023-02-23T11:19:01.815Z,17.25
2023-02-23T11:21:38.760Z,15.90
2023-02-23T11:24:18.122Z,15.80
2023-02-23T11:26:47.358Z,15.45
2023-02-23T11:29:26.147Z,16.70
2023-02-23T11:31:56.147Z,13.88
2023-02-23T11:34:31.984Z,17.27
2023-02-23T11:37:05.866Z,13.82
2023-02-23T11:39:33.088Z,14.15
2023-02-23T11:42:25.222Z,14.68
2023-02-23T11:45:03.772Z,13.93
2023-02-23T11:47:33.375Z,14.25
2023-02-23T11:50:00.842Z,14.23
2023-02-23T11:52:28.246Z,14.00
2023-02-23T11:54:58.943Z,14.10
2023-02-23T12:05:51.743Z,14.68
2023-02-23T12:08:39.659Z,10.95
2023-02-23T12:11:22.363Z,6.43
2023-02-23T12:14:26.354Z,14.02
2023-02-23T12:16:59.992Z,13.15
2023-02-23T12:19:50.465Z,12.40
2023-02-23T12:22:26.773Z,12.13
2023-02-23T12:25:04.889Z,13.68
2023-02-23T12:33:02.104Z,13.85
2023-02-23T12:35:46.342Z,13.57
2023-02-23T12:38:33.181Z,14.68
2023-02-23T12:41:21.487Z,5.85
2023-02-23T12:43:57.502Z,13.55
2023-02-23T12:46:47.282Z,12.02
2023-02-23T12:49:29.928Z,14.68
2023-02-23T12:52:08.456Z,14.23
2023-02-23T12:54:36.297Z,13.57
2023-02-23T12:57:23.657Z,13.43
2023-02-23T13:00:30.353Z,15.00
2023-02-23T13:03:24.186Z,7.63
2023-02-23T13:05:53.748Z,15.27
2023-02-23T13:08:52.211Z,16.17
2023-02-23T13:11:34.456Z,19.00
2023-02-23T13:14:14.612Z,18.40
2023-02-23T13:16:53.314Z,18.55
2023-02-23T13:19:46.584Z,17.15
2023-02-23T13:22:33.343Z,19.55
2023-02-23T13:25:05.106Z,19.60
2023-02-23T13:27:39.029Z,17.65
2023-02-23T13:30:10.062Z,17.90
2023-02-23T13:32:38.657Z,18.40
2023-02-23T13:35:12.906Z,17.25
2023-02-23T13:37:50.199Z,18.23
2023-02-23T13:40:42.027Z,16.92
2023-02-23T13:43:30.643Z,15.68
2023-02-23T13:46:04.231Z,16.95
2023-02-23T13:48:59.315Z,16.52
2023-02-23T13:51:51.681Z,15.25
2023-02-23T13:54:22.760Z,14.50
2023-02-23T13:57:01.585Z,21.70
2023-02-23T13:59:41.678Z,22.17
2023-02-23T14:02:34.688Z,18.02
2023-02-23T14:05:22.533Z,16.95
2023-02-23T14:07:53.681Z,13.88
2023-02-23T14:10:26.903Z,14.85
2023-02-23T14:13:15.624Z,16.00
2023-02-23T14:15:48.167Z,16.83
2023-02-23T14:18:20.837Z,17.33
2023-02-23T14:21:13.016Z,17.08
2023-02-23T14:23:50.699Z,4.55
2023-02-23T14:26:29.456Z,10.30
2023-02-23T14:29:25.406Z,4.55
2023-02-23T14:32:17.095Z,8.05
2023-02-23T14:35:02.207Z,11.93
2023-02-23T14:37:56.181Z,12.00
2023-02-23T14:40:32.904Z,15.15
2023-02-23T14:43:02.648Z,17.58
2023-02-23T14:45:37.844Z,16.50
2023-02-23T14:48:13.359Z,14.90
2023-02-23T14:50:41.260Z,15.45
2023-02-23T14:53:18.395Z,14.23
2023-02-23T14:55:45.522Z,14.95
2023-02-23T14:58:38.599Z,14.35
2023-02-23T15:01:05.357Z,14.32
2023-02-23T15:03:32.064Z,15.32
2023-02-23T15:06:01.827Z,16.15
2023-02-23T15:08:30.434Z,16.50
2023-02-23T15:11:05.823Z,16.73
2023-02-23T15:16:15.115Z,15.00
2023-02-23T15:18:43.560Z,13.02
2023-02-23T15:21:22.759Z,12.25
2023-02-23T15:23:52.898Z,12.05
2023-02-23T15:26:32.190Z,12.18
2023-02-23T15:29:13.365Z,12.95
2023-02-23T15:31:51.781Z,12.23
2023-02-23T15:34:21.847Z,12.45
2023-02-23T15:37:14.129Z,12.77
2023-02-23T15:39:53.247Z,13.05
2023-02-23T15:42:48.771Z,11.45
2023-02-23T15:45:33.616Z,12.85
2023-02-23T15:48:07.393Z,11.45
2023-02-23T15:50:40.473Z,13.30
2023-02-23T15:53:20.644Z,13.02
2023-02-23T15:55:48.385Z,12.52
2023-02-23T15:58:24.012Z,12.93
2023-02-23T16:00:59.562Z,12.20
2023-02-23T16:03:32.223Z,10.52
2023-02-23T16:06:05.495Z,10.93
2023-02-23T16:08:33.356Z,10.82
2023-02-23T16:11:15.049Z,10.68
2023-02-23T16:13:46.160Z,11.77
2023-02-23T16:16:20.382Z,10.80
2023-02-23T16:18:53.301Z,12.93
2023-02-23T16:21:25.341Z,11.00
2023-02-23T16:23:54.739Z,11.63
2023-02-23T16:26:33.989Z,10.57
2023-02-23T16:29:02.934Z,11.35
2023-02-23T16:31:58.072Z,13.45
2023-02-23T16:34:44.708Z,11.27
2023-02-23T16:37:22.974Z,12.95
2023-02-23T16:39:49.793Z,13.15
2023-02-23T16:42:34.016Z,12.32
2023-02-23T16:45:01.314Z,11.07
2023-02-23T16:47:40.411Z,13.82
2023-02-23T16:50:24.445Z,13.93
2023-02-23T16:52:53.105Z,11.93
2023-02-23T16:55:29.810Z,11.13
2023-02-23T16:57:59.685Z,10.27
2023-02-23T17:00:32.346Z,10.57
2023-02-23T17:03:00.486Z,10.48
2023-02-23T17:05:28.858Z,12.18
2023-02-23T17:07:57.454Z,12.55
2023-02-23T17:10:28.378Z,11.60
2023-02-23T17:13:03.002Z,9.77
2023-02-23T17:15:35.792Z,11.90
2023-02-23T17:18:03.172Z,10.32
2023-02-23T17:20:30.165Z,10.80
2023-02-23T17:22:59.287Z,10.48
2023-02-23T17:25:26.489Z,11.55
2023-02-23T17:27:53.996Z,10.73
2023-02-23T17:30:21.321Z,11.48
2023-02-23T17:32:49.535Z,10.80
2023-02-23T17:35:16.296Z,11.27
2023-02-23T17:37:43.140Z,11.57
2023-02-23T17:40:14.220Z,10.95
2023-02-23T17:42:41.107Z,13.50
2023-02-23T17:45:08.460Z,11.77
2023-02-23T17:47:36.676Z,9.75
2023-02-23T17:50:03.327Z,10.05
2023-02-23T17:52:29.929Z,8.75
2023-02-23T17:54:56.942Z,8.80
2023-02-23T17:57:25.320Z,8.80
2023-02-23T17:59:52.359Z,9.30
2023-02-23T18:02:21.045Z,8.15
2023-02-23T18:04:48.902Z,7.95
2023-02-23T18:07:16.244Z,6.55
2023-02-23T18:09:43.032Z,6.43
2023-02-23T18:12:10.006Z,7.47
2023-02-23T18:14:37.735Z,6.72
2023-02-23T18:17:04.871Z,6.97
2023-02-23T18:19:31.980Z,5.43
2023-02-23T18:21:58.590Z,6.60
2023-02-23T18:24:27.100Z,7.25
2023-02-23T18:27:00.802Z,7.90
2023-02-23T18:29:32.391Z,7.22
2023-02-23T18:31:59.747Z,5.78
2023-02-23T18:34:28.710Z,7.25
2023-02-23T18:37:02.269Z,6.93
2023-02-23T18:39:32.545Z,6.00
2023-02-23T18:42:00.716Z,6.65
2023-02-23T18:44:27.673Z,6.20
2023-02-23T18:46:54.799Z,3.20
2023-02-23T18:49:24.031Z,7.88
2023-02-23T18:51:51.317Z,7.07
2023-02-23T18:54:24.569Z,6.90
2023-02-23T18:56:52.194Z,7.70
2023-02-23T18:59:18.835Z,4.82
2023-02-23T19:01:47.793Z,6.60
2023-02-23T19:04:14.589Z,5.30
2023-02-23T19:06:43.868Z,7.82
2023-02-23T19:09:14.204Z,12.45
2023-02-23T19:11:42.389Z,9.00
2023-02-23T19:14:12.841Z,13.98
2023-02-23T19:16:40.973Z,6.38
2023-02-23T19:19:08.623Z,5.78
2023-02-23T19:21:36.345Z,5.28
2023-02-23T19:24:04.235Z,6.22
2023-02-23T19:26:33.521Z,5.97
2023-02-23T19:29:00.703Z,5.10
2023-02-23T19:31:28.493Z,5.22
2023-02-23T19:33:56.919Z,5.13
2023-02-23T19:36:30.536Z,8.40
2023-02-23T19:39:06.049Z,6.35
2023-02-23T19:41:33.980Z,7.78
2023-02-23T19:44:00.995Z,7.15
2023-02-23T19:46:28.327Z,6.32
2023-02-23T19:48:55.332Z,8.68
2023-02-23T19:51:23.190Z,8.75
2023-02-23T19:53:52.502Z,7.80
2023-02-23T19:56:19.081Z,7.97
2023-02-23T19:58:46.781Z,7.60
2023-02-23T20:01:19.745Z,7.22
2023-02-23T20:03:55.040Z,6.60
2023-02-23T20:06:24.828Z,6.00
2023-02-23T20:08:52.580Z,6.20
2023-02-23T20:11:20.126Z,7.45
2023-02-23T20:13:46.947Z,7.25
2023-02-23T20:16:14.917Z,7.10
2023-02-23T20:18:42.180Z,7.25
2023-02-23T20:21:10.240Z,6.20
2023-02-23T20:23:37.070Z,7.03
2023-02-23T20:26:09.131Z,7.47
2023-02-23T20:28:35.758Z,8.13
2023-02-23T20:31:02.727Z,7.30
2023-02-23T20:33:30.811Z,7.53
2023-02-23T20:35:57.930Z,7.18
2023-02-23T20:38:24.709Z,7.40
2023-02-23T20:40:51.552Z,7.97
2023-02-23T20:43:18.768Z,8.38
2023-02-23T20:45:45.443Z,7.55
2023-02-23T20:48:12.142Z,6.63
2023-02-23T20:50:39.134Z,6.03
2023-02-23T20:53:05.844Z,4.65
2023-02-23T20:55:32.777Z,3.25
2023-02-23T20:57:59.424Z,2.10
2023-02-23T21:00:29.347Z,2.20
2023-02-23T21:02:55.954Z,2.50
2023-02-23T21:05:28.746Z,2.90
2023-02-23T21:08:00.553Z,2.60
2023-02-23T21:10:33.710Z,2.80
2023-02-23T21:13:01.016Z,2.40
2023-02-23T21:15:29.105Z,2.53
2023-02-23T21:17:56.815Z,2.35
2023-02-23T21:20:24.896Z,2.22
2023-02-23T21:22:51.763Z,2.58
2023-02-23T21:25:20.484Z,2.30
2023-02-23T21:27:48.679Z,2.20
2023-02-23T21:30:20.733Z,2.42
2023-02-23T21:32:49.372Z,2.25
2023-02-23T21:35:16.839Z,1.80
2023-02-23T21:37:43.660Z,2.22
2023-02-23T21:40:18.844Z,1.65
2023-02-23T21:42:45.441Z,2.38
2023-02-23T21:45:13.596Z,2.35
2023-02-23T21:47:43.003Z,2.65
2023-02-23T21:50:13.527Z,2.45
2023-02-23T21:52:45.091Z,3.00
2023-02-23T21:55:21.303Z,3.20
2023-02-23T21:57:48.581Z,2.30
2023-02-23T22:00:21.477Z,2.60
2023-02-23T22:02:48.724Z,2.33
2023-02-23T22:05:17.594Z,3.20
2023-02-23T22:07:49.374Z,2.97
2023-02-23T22:10:17.784Z,2.05
2023-02-23T22:12:44.467Z,3.00
2023-02-23T22:15:11.521Z,2.78
2023-02-23T22:17:38.596Z,2.92
2023-02-23T22:20:07.166Z,3.28
2023-02-23T22:22:35.938Z,4.13
2023-02-23T22:25:07.647Z,1.90
2023-02-23T22:27:34.422Z,3.90
2023-02-23T22:30:01.711Z,3.42
2023-02-23T22:32:32.478Z,3.05
2023-02-23T22:35:00.415Z,3.63
2023-02-23T22:37:31.484Z,3.67
2023-02-23T22:40:01.463Z,3.40
2023-02-23T22:42:35.255Z,3.10
2023-02-23T22:45:01.926Z,3.63
2023-02-23T22:47:28.511Z,3.25
2023-02-23T22:49:55.263Z,3.55
2023-02-23T22:52:21.880Z,3.42
2023-02-23T22:54:50.642Z,3.35
2023-02-23T22:57:17.267Z,2.90
2023-02-23T22:59:54.549Z,3.80
2023-02-23T23:02:22.641Z,2.58
2023-02-23T23:04:49.235Z,3.00
2023-02-23T23:07:15.940Z,2.60
2023-02-23T23:09:42.555Z,3.15
2023-02-23T23:12:11.753Z,2.80
2023-02-23T23:14:38.672Z,2.47
2023-02-23T23:17:05.349Z,2.92
2023-02-23T23:19:38.708Z,2.88
2023-02-23T23:22:05.643Z,1.77
2023-02-23T23:24:32.456Z,2.28
2023-02-23T23:27:08.035Z,1.77
2023-02-23T23:29:34.627Z,2.00
2023-02-23T23:32:03.113Z,2.10
2023-02-23T23:34:33.281Z,1.73
2023-02-23T23:37:01.215Z,1.67
2023-02-23T23:39:27.998Z,1.45
2023-02-23T23:41:54.650Z,2.85
2023-02-23T23:44:24.313Z,1.67
2023-02-23T23:46:51.292Z,2.40
2023-02-23T23:49:20.678Z,1.90
2023-02-23T23:51:52.484Z,2.15
2023-02-23T23:54:22.128Z,2.33
2023-02-23T23:56:49.492Z,1.77
2023-02-23T23:59:22.691Z,1.63
